sensor_id;sensor_type;location;lat;lon;timestamp;P1;durP1;ratioP1;P2;durP2;ratioP2
34019;SDS011;20895;51.034;3.742;2023-02-12T00:01:43;16.23;;;12.13;;
34019;SDS011;20895;51.034;3.742;2023-02-12T00:04:08;13.27;;;10.70;;
34019;SDS011;20895;51.034;3.742;2023-02-12T00:06:34;14.15;;;11.52;;
34019;SDS011;20895;51.034;3.742;2023-02-12T00:08:59;12.75;;;11.45;;
34019;SDS011;20895;51.034;3.742;2023-02-12T00:11:26;13.15;;;11.35;;
34019;SDS011;20895;51.034;3.742;2023-02-12T00:13:52;13.18;;;10.73;;
34019;SDS011;20895;51.034;3.742;2023-02-12T00:16:18;11.65;;;10.45;;
34019;SDS011;20895;51.034;3.742;2023-02-12T00:18:44;13.57;;;11.00;;
34019;SDS011;20895;51.034;3.742;2023-02-12T00:21:09;12.07;;;10.73;;
34019;SDS011;20895;51.034;3.742;2023-02-12T00:23:35;15.73;;;12.38;;
34019;SDS011;20895;51.034;3.742;2023-02-12T00:26:04;12.90;;;11.48;;
34019;SDS011;20895;51.034;3.742;2023-02-12T00:28:29;17.75;;;13.48;;
34019;SDS011;20895;51.034;3.742;2023-02-12T00:30:54;17.52;;;14.10;;
34019;SDS011;20895;51.034;3.742;2023-02-12T00:33:20;18.33;;;14.30;;
34019;SDS011;20895;51.034;3.742;2023-02-12T00:35:53;16.40;;;13.15;;
34019;SDS011;20895;51.034;3.742;2023-02-12T00:38:18;16.73;;;13.75;;
34019;SDS011;20895;51.034;3.742;2023-02-12T00:40:43;17.25;;;13.00;;
34019;SDS011;20895;51.034;3.742;2023-02-12T00:43:09;14.80;;;13.05;;
34019;SDS011;20895;51.034;3.742;2023-02-12T00:45:34;17.17;;;12.88;;
34019;SDS011;20895;51.034;3.742;2023-02-12T00:48:02;15.02;;;13.32;;
34019;SDS011;20895;51.034;3.742;2023-02-12T00:50:27;16.48;;;13.15;;
34019;SDS011;20895;51.034;3.742;2023-02-12T00:52:52;16.88;;;13.70;;
34019;SDS011;20895;51.034;3.742;2023-02-12T00:55:17;16.98;;;12.35;;
34019;SDS011;20895;51.034;3.742;2023-02-12T00:57:43;17.90;;;13.30;;
34019;SDS011;20895;51.034;3.742;2023-02-12T01:00:08;14.45;;;12.27;;
34019;SDS011;20895;51.034;3.742;2023-02-12T01:02:34;14.18;;;12.40;;
34019;SDS011;20895;51.034;3.742;2023-02-12T01:04:59;16.08;;;11.70;;
34019;SDS011;20895;51.034;3.742;2023-02-12T01:07:24;16.58;;;11.65;;
34019;SDS011;20895;51.034;3.742;2023-02-12T01:09:50;14.57;;;11.65;;
34019;SDS011;20895;51.034;3.742;2023-02-12T01:12:15;15.77;;;11.77;;
34019;SDS011;20895;51.034;3.742;2023-02-12T01:14:40;13.40;;;10.88;;
34019;SDS011;20895;51.034;3.742;2023-02-12T01:17:07;12.93;;;11.40;;
34019;SDS011;20895;51.034;3.742;2023-02-12T01:19:32;12.82;;;11.20;;
34019;SDS011;20895;51.034;3.742;2023-02-12T01:21:57;12.65;;;10.65;;
34019;SDS011;20895;51.034;3.742;2023-02-12T01:24:22;12.55;;;10.05;;
34019;SDS011;20895;51.034;3.742;2023-02-12T01:26:48;11.60;;;10.38;;
34019;SDS011;20895;51.034;3.742;2023-02-12T01:29:13;13.18;;;10.30;;
34019;SDS011;20895;51.034;3.742;2023-02-12T01:31:38;11.77;;;9.82;;
34019;SDS011;20895;51.034;3.742;2023-02-12T01:34:04;14.98;;;10.95;;
34019;SDS011;20895;51.034;3.742;2023-02-12T01:36:30;14.48;;;10.70;;
34019;SDS011;20895;51.034;3.742;2023-02-12T01:38:56;13.57;;;10.73;;
34019;SDS011;20895;51.034;3.742;2023-02-12T01:41:26;14.00;;;10.95;;
34019;SDS011;20895;51.034;3.742;2023-02-12T01:46:59;14.10;;;10.63;;
34019;SDS011;20895;51.034;3.742;2023-02-12T01:49:38;13.95;;;10.13;;
34019;SDS011;20895;51.034;3.742;2023-02-12T01:52:08;11.88;;;10.68;;
34019;SDS011;20895;51.034;3.742;2023-02-12T01:57:03;13.63;;;12.15;;
34019;SDS011;20895;51.034;3.742;2023-02-12T01:59:28;14.45;;;12.63;;
34019;SDS011;20895;51.034;3.742;2023-02-12T02:01:54;13.82;;;12.30;;
34019;SDS011;20895;51.034;3.742;2023-02-12T02:04:21;15.98;;;14.48;;
34019;SDS011;20895;51.034;3.742;2023-02-12T02:06:57;16.73;;;14.75;;
34019;SDS011;20895;51.034;3.742;2023-02-12T02:09:23;14.35;;;12.77;;
34019;SDS011;20895;51.034;3.742;2023-02-12T02:11:48;13.95;;;12.45;;
34019;SDS011;20895;51.034;3.742;2023-02-12T02:14:32;15.15;;;12.43;;
34019;SDS011;20895;51.034;3.742;2023-02-12T02:19:46;17.33;;;13.55;;
34019;SDS011;20895;51.034;3.742;2023-02-12T02:22:33;15.93;;;14.23;;
34019;SDS011;20895;51.034;3.742;2023-02-12T02:25:20;14.93;;;13.35;;
34019;SDS011;20895;51.034;3.742;2023-02-12T02:40:51;15.32;;;12.55;;
34019;SDS011;20895;51.034;3.742;2023-02-12T02:43:19;14.05;;;12.60;;
34019;SDS011;20895;51.034;3.742;2023-02-12T02:45:47;16.80;;;13.55;;
34019;SDS011;20895;51.034;3.742;2023-02-12T02:48:16;15.43;;;12.85;;
34019;SDS011;20895;51.034;3.742;2023-02-12T02:50:43;15.63;;;13.23;;
34019;SDS011;20895;51.034;3.742;2023-02-12T02:53:11;15.48;;;13.02;;
34019;SDS011;20895;51.034;3.742;2023-02-12T02:55:46;14.98;;;13.45;;
34019;SDS011;20895;51.034;3.742;2023-02-12T02:58:13;15.48;;;13.88;;
34019;SDS011;20895;51.034;3.742;2023-02-12T03:00:43;15.38;;;13.40;;
34019;SDS011;20895;51.034;3.742;2023-02-12T03:05:47;15.98;;;13.48;;
34019;SDS011;20895;51.034;3.742;2023-02-12T03:08:14;14.95;;;13.15;;
34019;SDS011;20895;51.034;3.742;2023-02-12T03:10:42;17.40;;;13.05;;
34019;SDS011;20895;51.034;3.742;2023-02-12T03:13:09;16.15;;;14.02;;
34019;SDS011;20895;51.034;3.742;2023-02-12T03:18:01;15.50;;;12.90;;
34019;SDS011;20895;51.034;3.742;2023-02-12T03:20:34;16.58;;;13.25;;
34019;SDS011;20895;51.034;3.742;2023-02-12T03:23:04;16.50;;;13.48;;
34019;SDS011;20895;51.034;3.742;2023-02-12T03:28:35;16.17;;;14.48;;
34019;SDS011;20895;51.034;3.742;2023-02-12T03:31:09;17.17;;;15.43;;
34019;SDS011;20895;51.034;3.742;2023-02-12T03:36:01;16.17;;;14.50;;
34019;SDS011;20895;51.034;3.742;2023-02-12T03:38:40;16.52;;;14.82;;
34019;SDS011;20895;51.034;3.742;2023-02-12T03:41:10;16.88;;;15.18;;
34019;SDS011;20895;51.034;3.742;2023-02-12T03:43:47;16.70;;;15.07;;
34019;SDS011;20895;51.034;3.742;2023-02-12T03:51:16;19.52;;;16.10;;
34019;SDS011;20895;51.034;3.742;2023-02-12T03:53:44;19.48;;;16.05;;
34019;SDS011;20895;51.034;3.742;2023-02-12T03:56:16;19.42;;;16.02;;
34019;SDS011;20895;51.034;3.742;2023-02-12T03:58:43;17.70;;;15.85;;
34019;SDS011;20895;51.034;3.742;2023-02-12T04:01:09;18.25;;;15.88;;
34019;SDS011;20895;51.034;3.742;2023-02-12T04:03:35;17.27;;;15.48;;
34019;SDS011;20895;51.034;3.742;2023-02-12T04:06:00;18.58;;;15.27;;
34019;SDS011;20895;51.034;3.742;2023-02-12T04:08:26;18.52;;;15.68;;
34019;SDS011;20895;51.034;3.742;2023-02-12T04:10:56;18.92;;;16.02;;
34019;SDS011;20895;51.034;3.742;2023-02-12T04:14:12;20.67;;;17.13;;
34019;SDS011;20895;51.034;3.742;2023-02-12T04:21:08;18.90;;;16.90;;
34019;SDS011;20895;51.034;3.742;2023-02-12T04:26:09;19.67;;;17.60;;
34019;SDS011;20895;51.034;3.742;2023-02-12T04:31:07;21.67;;;18.05;;
34019;SDS011;20895;51.034;3.742;2023-02-12T04:33:39;22.48;;;20.00;;
34019;SDS011;20895;51.034;3.742;2023-02-12T04:36:14;19.67;;;16.90;;
34019;SDS011;20895;51.034;3.742;2023-02-12T04:38:43;21.60;;;16.98;;
34019;SDS011;20895;51.034;3.742;2023-02-12T04:41:10;19.23;;;17.20;;
34019;SDS011;20895;51.034;3.742;2023-02-12T04:43:35;26.85;;;18.60;;
34019;SDS011;20895;51.034;3.742;2023-02-12T04:46:02;21.25;;;16.08;;
34019;SDS011;20895;51.034;3.742;2023-02-12T04:48:27;19.10;;;17.10;;
34019;SDS011;20895;51.034;3.742;2023-02-12T04:50:52;18.88;;;16.85;;
34019;SDS011;20895;51.034;3.742;2023-02-12T04:53:18;23.70;;;18.48;;
34019;SDS011;20895;51.034;3.742;2023-02-12T04:55:43;21.80;;;18.05;;
34019;SDS011;20895;51.034;3.742;2023-02-12T04:58:09;22.35;;;17.40;;
34019;SDS011;20895;51.034;3.742;2023-02-12T05:00:34;20.95;;;17.98;;
34019;SDS011;20895;51.034;3.742;2023-02-12T05:02:59;21.52;;;19.25;;
34019;SDS011;20895;51.034;3.742;2023-02-12T05:05:25;19.38;;;17.33;;
34019;SDS011;20895;51.034;3.742;2023-02-12T05:07:50;21.17;;;17.35;;
34019;SDS011;20895;51.034;3.742;2023-02-12T05:10:16;20.85;;;18.40;;
34019;SDS011;20895;51.034;3.742;2023-02-12T05:12:41;23.38;;;17.75;;
34019;SDS011;20895;51.034;3.742;2023-02-12T05:15:06;19.65;;;17.63;;
34019;SDS011;20895;51.034;3.742;2023-02-12T05:17:32;19.40;;;16.85;;
34019;SDS011;20895;51.034;3.742;2023-02-12T05:19:57;24.40;;;19.75;;
34019;SDS011;20895;51.034;3.742;2023-02-12T05:22:23;21.95;;;17.65;;
34019;SDS011;20895;51.034;3.742;2023-02-12T05:24:48;19.75;;;17.65;;
34019;SDS011;20895;51.034;3.742;2023-02-12T05:27:13;20.48;;;17.65;;
34019;SDS011;20895;51.034;3.742;2023-02-12T05:29:39;20.58;;;18.38;;
34019;SDS011;20895;51.034;3.742;2023-02-12T05:32:04;20.02;;;17.65;;
34019;SDS011;20895;51.034;3.742;2023-02-12T05:34:30;20.95;;;17.58;;
34019;SDS011;20895;51.034;3.742;2023-02-12T05:36:56;22.75;;;17.90;;
34019;SDS011;20895;51.034;3.742;2023-02-12T05:39:21;21.77;;;18.25;;
34019;SDS011;20895;51.034;3.742;2023-02-12T05:41:46;22.35;;;18.52;;
34019;SDS011;20895;51.034;3.742;2023-02-12T05:44:11;22.92;;;17.88;;
34019;SDS011;20895;51.034;3.742;2023-02-12T05:46:39;20.48;;;17.42;;
34019;SDS011;20895;51.034;3.742;2023-02-12T05:49:04;20.58;;;17.73;;
34019;SDS011;20895;51.034;3.742;2023-02-12T05:51:30;22.35;;;19.25;;
34019;SDS011;20895;51.034;3.742;2023-02-12T05:53:57;22.65;;;19.15;;
34019;SDS011;20895;51.034;3.742;2023-02-12T05:56:25;26.48;;;20.00;;
34019;SDS011;20895;51.034;3.742;2023-02-12T05:58:52;23.80;;;19.00;;
34019;SDS011;20895;51.034;3.742;2023-02-12T06:01:23;22.27;;;18.48;;
34019;SDS011;20895;51.034;3.742;2023-02-12T06:03:49;25.85;;;19.40;;
34019;SDS011;20895;51.034;3.742;2023-02-12T06:06:14;22.02;;;18.40;;
34019;SDS011;20895;51.034;3.742;2023-02-12T06:08:39;22.65;;;19.25;;
34019;SDS011;20895;51.034;3.742;2023-02-12T06:11:06;23.30;;;18.80;;
34019;SDS011;20895;51.034;3.742;2023-02-12T06:13:31;22.20;;;19.00;;
34019;SDS011;20895;51.034;3.742;2023-02-12T06:15:57;20.73;;;18.40;;
34019;SDS011;20895;51.034;3.742;2023-02-12T06:18:22;21.95;;;19.63;;
34019;SDS011;20895;51.034;3.742;2023-02-12T06:20:48;21.17;;;18.05;;
34019;SDS011;20895;51.034;3.742;2023-02-12T06:23:13;21.38;;;17.77;;
34019;SDS011;20895;51.034;3.742;2023-02-12T06:25:38;22.45;;;19.60;;
34019;SDS011;20895;51.034;3.742;2023-02-12T06:28:03;21.92;;;18.50;;
34019;SDS011;20895;51.034;3.742;2023-02-12T06:30:29;19.92;;;17.58;;
34019;SDS011;20895;51.034;3.742;2023-02-12T06:32:55;22.67;;;17.90;;
34019;SDS011;20895;51.034;3.742;2023-02-12T06:35:21;20.85;;;17.67;;
34019;SDS011;20895;51.034;3.742;2023-02-12T06:37:46;22.85;;;18.50;;
34019;SDS011;20895;51.034;3.742;2023-02-12T06:40:11;20.55;;;18.13;;
34019;SDS011;20895;51.034;3.742;2023-02-12T06:42:37;22.88;;;18.33;;
34019;SDS011;20895;51.034;3.742;2023-02-12T06:45:02;22.45;;;17.95;;
34019;SDS011;20895;51.034;3.742;2023-02-12T06:47:27;21.02;;;18.05;;
34019;SDS011;20895;51.034;3.742;2023-02-12T06:49:53;22.30;;;17.58;;
34019;SDS011;20895;51.034;3.742;2023-02-12T06:52:18;19.83;;;17.13;;
34019;SDS011;20895;51.034;3.742;2023-02-12T06:54:45;20.98;;;18.30;;
34019;SDS011;20895;51.034;3.742;2023-02-12T06:57:10;21.70;;;16.63;;
34019;SDS011;20895;51.034;3.742;2023-02-12T06:59:35;21.63;;;16.83;;
34019;SDS011;20895;51.034;3.742;2023-02-12T07:02:00;19.02;;;16.67;;
34019;SDS011;20895;51.034;3.742;2023-02-12T07:04:26;20.45;;;17.77;;
34019;SDS011;20895;51.034;3.742;2023-02-12T07:06:51;20.48;;;16.90;;
34019;SDS011;20895;51.034;3.742;2023-02-12T07:09:16;23.90;;;19.48;;
34019;SDS011;20895;51.034;3.742;2023-02-12T07:11:41;20.77;;;18.30;;
34019;SDS011;20895;51.034;3.742;2023-02-12T07:14:10;21.17;;;17.35;;
34019;SDS011;20895;51.034;3.742;2023-02-12T07:16:37;19.30;;;17.23;;
34019;SDS011;20895;51.034;3.742;2023-02-12T07:19:02;18.95;;;16.38;;
34019;SDS011;20895;51.034;3.742;2023-02-12T07:21:27;21.08;;;18.30;;
34019;SDS011;20895;51.034;3.742;2023-02-12T07:23:52;20.58;;;17.88;;
34019;SDS011;20895;51.034;3.742;2023-02-12T07:26:18;19.70;;;17.10;;
34019;SDS011;20895;51.034;3.742;2023-02-12T07:28:44;29.35;;;18.95;;
34019;SDS011;20895;51.034;3.742;2023-02-12T07:31:17;27.17;;;18.38;;
34019;SDS011;20895;51.034;3.742;2023-02-12T07:33:42;23.00;;;19.33;;
34019;SDS011;20895;51.034;3.742;2023-02-12T07:36:09;25.27;;;19.50;;
34019;SDS011;20895;51.034;3.742;2023-02-12T07:38:35;21.15;;;17.75;;
34019;SDS011;20895;51.034;3.742;2023-02-12T07:41:07;21.52;;;19.23;;
34019;SDS011;20895;51.034;3.742;2023-02-12T07:43:33;25.60;;;21.05;;
34019;SDS011;20895;51.034;3.742;2023-02-12T07:46:33;24.90;;;20.70;;
34019;SDS011;20895;51.034;3.742;2023-02-12T07:48:56;32.45;;;19.92;;
34019;SDS011;20895;51.034;3.742;2023-02-12T07:51:22;37.50;;;27.95;;
34019;SDS011;20895;51.034;3.742;2023-02-12T07:53:49;27.42;;;21.27;;
34019;SDS011;20895;51.034;3.742;2023-02-12T07:56:18;24.75;;;19.88;;
34019;SDS011;20895;51.034;3.742;2023-02-12T07:58:45;30.48;;;21.27;;
34019;SDS011;20895;51.034;3.742;2023-02-12T08:01:18;24.67;;;21.92;;
34019;SDS011;20895;51.034;3.742;2023-02-12T08:03:45;23.00;;;19.83;;
34019;SDS011;20895;51.034;3.742;2023-02-12T08:06:11;25.13;;;21.63;;
34019;SDS011;20895;51.034;3.742;2023-02-12T08:08:37;30.63;;;22.73;;
34019;SDS011;20895;51.034;3.742;2023-02-12T08:11:06;30.38;;;21.05;;
34019;SDS011;20895;51.034;3.742;2023-02-12T08:13:32;24.15;;;21.33;;
34019;SDS011;20895;51.034;3.742;2023-02-12T08:16:01;26.25;;;21.90;;
34019;SDS011;20895;51.034;3.742;2023-02-12T08:18:26;30.20;;;22.15;;
34019;SDS011;20895;51.034;3.742;2023-02-12T08:20:52;49.00;;;22.30;;
34019;SDS011;20895;51.034;3.742;2023-02-12T08:23:17;26.33;;;20.10;;
34019;SDS011;20895;51.034;3.742;2023-02-12T08:25:42;24.40;;;20.48;;
34019;SDS011;20895;51.034;3.742;2023-02-12T08:28:07;30.65;;;19.98;;
34019;SDS011;20895;51.034;3.742;2023-02-12T08:30:33;27.63;;;20.35;;
34019;SDS011;20895;51.034;3.742;2023-02-12T08:32:58;27.67;;;21.13;;
34019;SDS011;20895;51.034;3.742;2023-02-12T08:35:23;26.75;;;20.65;;
34019;SDS011;20895;51.034;3.742;2023-02-12T08:37:48;25.13;;;21.23;;
34019;SDS011;20895;51.034;3.742;2023-02-12T08:40:14;38.33;;;22.20;;
34019;SDS011;20895;51.034;3.742;2023-02-12T08:42:39;31.48;;;21.48;;
34019;SDS011;20895;51.034;3.742;2023-02-12T08:45:04;29.45;;;23.48;;
34019;SDS011;20895;51.034;3.742;2023-02-12T08:47:30;25.88;;;23.08;;
34019;SDS011;20895;51.034;3.742;2023-02-12T08:49:55;35.17;;;22.90;;
34019;SDS011;20895;51.034;3.742;2023-02-12T08:52:20;27.65;;;22.45;;
34019;SDS011;20895;51.034;3.742;2023-02-12T08:54:45;30.30;;;21.25;;
34019;SDS011;20895;51.034;3.742;2023-02-12T08:57:11;24.38;;;19.08;;
34019;SDS011;20895;51.034;3.742;2023-02-12T08:59:36;24.90;;;20.58;;
34019;SDS011;20895;51.034;3.742;2023-02-12T09:02:01;21.58;;;18.77;;
34019;SDS011;20895;51.034;3.742;2023-02-12T09:04:28;26.58;;;20.10;;
34019;SDS011;20895;51.034;3.742;2023-02-12T09:06:54;22.98;;;19.27;;
34019;SDS011;20895;51.034;3.742;2023-02-12T09:09:19;54.92;;;21.70;;
34019;SDS011;20895;51.034;3.742;2023-02-12T09:11:45;31.55;;;20.45;;
34019;SDS011;20895;51.034;3.742;2023-02-12T09:14:12;23.15;;;20.08;;
34019;SDS011;20895;51.034;3.742;2023-02-12T09:16:37;21.55;;;19.25;;
34019;SDS011;20895;51.034;3.742;2023-02-12T09:19:04;23.55;;;20.92;;
34019;SDS011;20895;51.034;3.742;2023-02-12T09:21:29;28.05;;;21.00;;
34019;SDS011;20895;51.034;3.742;2023-02-12T09:23:55;24.38;;;21.10;;
34019;SDS011;20895;51.034;3.742;2023-02-12T09:26:21;22.60;;;19.30;;
34019;SDS011;20895;51.034;3.742;2023-02-12T09:28:47;22.13;;;17.50;;
34019;SDS011;20895;51.034;3.742;2023-02-12T09:31:14;22.73;;;17.85;;
34019;SDS011;20895;51.034;3.742;2023-02-12T09:33:40;24.95;;;18.27;;
34019;SDS011;20895;51.034;3.742;2023-02-12T09:36:06;19.88;;;17.20;;
34019;SDS011;20895;51.034;3.742;2023-02-12T09:38:32;28.00;;;15.77;;
34019;SDS011;20895;51.034;3.742;2023-02-12T09:43:32;20.90;;;12.85;;
34019;SDS011;20895;51.034;3.742;2023-02-12T09:51:19;18.50;;;15.43;;
34019;SDS011;20895;51.034;3.742;2023-02-12T09:53:45;19.80;;;14.20;;
34019;SDS011;20895;51.034;3.742;2023-02-12T09:56:13;16.95;;;14.13;;
34019;SDS011;20895;51.034;3.742;2023-02-12T09:58:43;33.13;;;15.75;;
34019;SDS011;20895;51.034;3.742;2023-02-12T10:01:14;11.98;;;10.65;;
34019;SDS011;20895;51.034;3.742;2023-02-12T10:03:40;14.50;;;10.32;;
34019;SDS011;20895;51.034;3.742;2023-02-12T10:06:16;26.55;;;14.68;;
34019;SDS011;20895;51.034;3.742;2023-02-12T10:23:44;18.35;;;12.10;;
34019;SDS011;20895;51.034;3.742;2023-02-12T10:26:18;17.85;;;14.05;;
34019;SDS011;20895;51.034;3.742;2023-02-12T10:28:45;21.17;;;14.73;;
34019;SDS011;20895;51.034;3.742;2023-02-12T10:31:28;16.15;;;13.68;;
34019;SDS011;20895;51.034;3.742;2023-02-12T10:33:55;42.35;;;17.00;;
34019;SDS011;20895;51.034;3.742;2023-02-12T10:39:06;16.63;;;13.10;;
34019;SDS011;20895;51.034;3.742;2023-02-12T10:41:38;23.08;;;13.02;;
34019;SDS011;20895;51.034;3.742;2023-02-12T10:44:04;20.30;;;14.02;;
34019;SDS011;20895;51.034;3.742;2023-02-12T10:46:30;16.33;;;12.18;;
34019;SDS011;20895;51.034;3.742;2023-02-12T10:48:56;14.00;;;12.57;;
34019;SDS011;20895;51.034;3.742;2023-02-12T10:51:29;29.23;;;14.45;;
34019;SDS011;20895;51.034;3.742;2023-02-12T10:53:58;16.60;;;14.77;;
34019;SDS011;20895;51.034;3.742;2023-02-12T10:56:43;28.67;;;15.50;;
34019;SDS011;20895;51.034;3.742;2023-02-12T10:59:09;17.35;;;13.65;;
34019;SDS011;20895;51.034;3.742;2023-02-12T11:01:46;26.67;;;14.18;;
34019;SDS011;20895;51.034;3.742;2023-02-12T11:04:25;47.72;;;17.63;;
34019;SDS011;20895;51.034;3.742;2023-02-12T11:07:02;17.08;;;12.80;;
34019;SDS011;20895;51.034;3.742;2023-02-12T11:09:38;51.10;;;16.33;;
34019;SDS011;20895;51.034;3.742;2023-02-12T11:12:18;17.58;;;13.48;;
34019;SDS011;20895;51.034;3.742;2023-02-12T11:14:54;20.48;;;13.88;;
34019;SDS011;20895;51.034;3.742;2023-02-12T11:17:41;16.13;;;13.95;;
34019;SDS011;20895;51.034;3.742;2023-02-12T11:22:52;15.40;;;13.75;;
34019;SDS011;20895;51.034;3.742;2023-02-12T11:25:19;20.52;;;14.38;;
34019;SDS011;20895;51.034;3.742;2023-02-12T11:27:46;21.90;;;14.25;;
34019;SDS011;20895;51.034;3.742;2023-02-12T11:30:22;15.48;;;13.23;;
34019;SDS011;20895;51.034;3.742;2023-02-12T11:32:47;28.85;;;14.55;;
34019;SDS011;20895;51.034;3.742;2023-02-12T11:37:50;19.65;;;13.27;;
34019;SDS011;20895;51.034;3.742;2023-02-12T11:40:20;33.55;;;15.98;;
34019;SDS011;20895;51.034;3.742;2023-02-12T11:42:46;18.70;;;14.95;;
34019;SDS011;20895;51.034;3.742;2023-02-12T11:45:16;44.40;;;15.98;;
34019;SDS011;20895;51.034;3.742;2023-02-12T11:47:42;19.35;;;14.32;;
34019;SDS011;20895;51.034;3.742;2023-02-12T11:50:53;15.88;;;13.13;;
34019;SDS011;20895;51.034;3.742;2023-02-12T11:53:03;17.98;;;14.45;;
34019;SDS011;20895;51.034;3.742;2023-02-12T11:55:32;17.85;;;13.70;;
34019;SDS011;20895;51.034;3.742;2023-02-12T12:00:49;23.20;;;13.98;;
34019;SDS011;20895;51.034;3.742;2023-02-12T12:03:30;16.73;;;13.15;;
34019;SDS011;20895;51.034;3.742;2023-02-12T12:06:17;36.88;;;16.10;;
34019;SDS011;20895;51.034;3.742;2023-02-12T12:08:47;28.10;;;13.77;;
34019;SDS011;20895;51.034;3.742;2023-02-12T12:13:52;16.85;;;11.63;;
34019;SDS011;20895;51.034;3.742;2023-02-12T12:16:26;19.55;;;13.13;;
34019;SDS011;20895;51.034;3.742;2023-02-12T12:19:31;15.77;;;12.65;;
34019;SDS011;20895;51.034;3.742;2023-02-12T12:27:18;21.77;;;13.73;;
34019;SDS011;20895;51.034;3.742;2023-02-12T12:30:03;18.75;;;13.05;;
34019;SDS011;20895;51.034;3.742;2023-02-12T12:32:31;28.98;;;14.18;;
34019;SDS011;20895;51.034;3.742;2023-02-12T12:34:58;25.95;;;13.93;;
34019;SDS011;20895;51.034;3.742;2023-02-12T12:39:56;23.92;;;14.30;;
34019;SDS011;20895;51.034;3.742;2023-02-12T13:08:46;26.00;;;15.20;;
34019;SDS011;20895;51.034;3.742;2023-02-12T13:13:47;18.67;;;15.13;;
34019;SDS011;20895;51.034;3.742;2023-02-12T13:23:51;21.15;;;15.25;;
34019;SDS011;20895;51.034;3.742;2023-02-12T13:26:23;30.20;;;16.95;;
34019;SDS011;20895;51.034;3.742;2023-02-12T13:28:55;19.50;;;15.63;;
34019;SDS011;20895;51.034;3.742;2023-02-12T13:31:23;31.58;;;16.10;;
34019;SDS011;20895;51.034;3.742;2023-02-12T13:33:54;20.17;;;15.68;;
34019;SDS011;20895;51.034;3.742;2023-02-12T13:36:20;22.25;;;17.30;;
34019;SDS011;20895;51.034;3.742;2023-02-12T13:42:01;22.20;;;16.55;;
34019;SDS011;20895;51.034;3.742;2023-02-12T13:44:35;17.92;;;14.90;;
34019;SDS011;20895;51.034;3.742;2023-02-12T13:47:25;20.98;;;15.50;;
34019;SDS011;20895;51.034;3.742;2023-02-12T13:50:05;21.58;;;16.00;;
34019;SDS011;20895;51.034;3.742;2023-02-12T13:52:43;18.90;;;15.57;;
34019;SDS011;20895;51.034;3.742;2023-02-12T13:57:38;33.67;;;15.18;;
34019;SDS011;20895;51.034;3.742;2023-02-12T14:00:03;23.63;;;15.07;;
34019;SDS011;20895;51.034;3.742;2023-02-12T14:05:02;23.92;;;14.63;;
34019;SDS011;20895;51.034;3.742;2023-02-12T14:07:39;71.22;;;20.08;;
34019;SDS011;20895;51.034;3.742;2023-02-12T14:10:05;18.15;;;14.18;;
34019;SDS011;20895;51.034;3.742;2023-02-12T14:12:32;24.73;;;15.65;;
34019;SDS011;20895;51.034;3.742;2023-02-12T14:17:50;28.35;;;15.38;;
34019;SDS011;20895;51.034;3.742;2023-02-12T14:35:43;22.90;;;12.77;;
34019;SDS011;20895;51.034;3.742;2023-02-12T14:43:02;22.27;;;15.27;;
34019;SDS011;20895;51.034;3.742;2023-02-12T14:47:53;26.67;;;17.17;;
34019;SDS011;20895;51.034;3.742;2023-02-12T14:50:21;23.00;;;16.58;;
34019;SDS011;20895;51.034;3.742;2023-02-12T14:52:51;18.52;;;13.70;;
34019;SDS011;20895;51.034;3.742;2023-02-12T14:55:21;21.13;;;14.38;;
34019;SDS011;20895;51.034;3.742;2023-02-12T14:57:47;22.23;;;14.88;;
34019;SDS011;20895;51.034;3.742;2023-02-12T15:02:41;27.95;;;15.50;;
34019;SDS011;20895;51.034;3.742;2023-02-12T15:05:15;52.22;;;17.48;;
34019;SDS011;20895;51.034;3.742;2023-02-12T15:07:43;26.23;;;15.30;;
34019;SDS011;20895;51.034;3.742;2023-02-12T15:10:28;39.67;;;16.10;;
34019;SDS011;20895;51.034;3.742;2023-02-12T15:13:16;16.63;;;13.05;;
34019;SDS011;20895;51.034;3.742;2023-02-12T15:15:53;20.90;;;13.65;;
34019;SDS011;20895;51.034;3.742;2023-02-12T15:18:26;19.95;;;14.25;;
34019;SDS011;20895;51.034;3.742;2023-02-12T15:21:04;17.70;;;13.25;;
34019;SDS011;20895;51.034;3.742;2023-02-12T15:25:56;21.50;;;14.38;;
34019;SDS011;20895;51.034;3.742;2023-02-12T15:28:23;29.42;;;15.68;;
34019;SDS011;20895;51.034;3.742;2023-02-12T15:30:49;23.33;;;17.17;;
34019;SDS011;20895;51.034;3.742;2023-02-12T15:33:23;71.88;;;19.38;;
34019;SDS011;20895;51.034;3.742;2023-02-12T15:35:50;25.33;;;15.45;;
34019;SDS011;20895;51.034;3.742;2023-02-12T15:38:19;23.58;;;15.50;;
34019;SDS011;20895;51.034;3.742;2023-02-12T15:40:53;38.53;;;18.42;;
34019;SDS011;20895;51.034;3.742;2023-02-12T15:43:18;21.03;;;15.47;;
34019;SDS011;20895;51.034;3.742;2023-02-12T15:45:48;21.05;;;14.60;;
34019;SDS011;20895;51.034;3.742;2023-02-12T15:48:18;26.55;;;15.88;;
34019;SDS011;20895;51.034;3.742;2023-02-12T15:51:44;18.45;;;13.63;;
34019;SDS011;20895;51.034;3.742;2023-02-12T15:53:38;19.83;;;15.10;;
34019;SDS011;20895;51.034;3.742;2023-02-12T15:56:04;33.05;;;17.15;;
34019;SDS011;20895;51.034;3.742;2023-02-12T15:58:40;22.15;;;15.30;;
34019;SDS011;20895;51.034;3.742;2023-02-12T16:01:06;19.98;;;14.00;;
34019;SDS011;20895;51.034;3.742;2023-02-12T16:03:32;25.98;;;14.90;;
34019;SDS011;20895;51.034;3.742;2023-02-12T16:06:08;22.75;;;14.65;;
34019;SDS011;20895;51.034;3.742;2023-02-12T16:08:35;21.05;;;14.00;;
34019;SDS011;20895;51.034;3.742;2023-02-12T16:11:01;24.17;;;13.02;;
34019;SDS011;20895;51.034;3.742;2023-02-12T16:13:37;23.73;;;13.05;;
34019;SDS011;20895;51.034;3.742;2023-02-12T16:16:04;16.77;;;11.48;;
34019;SDS011;20895;51.034;3.742;2023-02-12T16:18:30;15.95;;;11.60;;
34019;SDS011;20895;51.034;3.742;2023-02-12T16:21:09;23.10;;;12.95;;
34019;SDS011;20895;51.034;3.742;2023-02-12T16:23:36;17.13;;;12.40;;
34019;SDS011;20895;51.034;3.742;2023-02-12T16:26:02;18.42;;;12.65;;
34019;SDS011;20895;51.034;3.742;2023-02-12T16:28:28;20.25;;;12.48;;
34019;SDS011;20895;51.034;3.742;2023-02-12T16:31:05;22.70;;;13.43;;
34019;SDS011;20895;51.034;3.742;2023-02-12T16:33:34;30.85;;;19.38;;
34019;SDS011;20895;51.034;3.742;2023-02-12T16:36:01;25.95;;;12.85;;
34019;SDS011;20895;51.034;3.742;2023-02-12T16:43:32;18.13;;;11.38;;
34019;SDS011;20895;51.034;3.742;2023-02-12T16:46:00;17.33;;;11.80;;
34019;SDS011;20895;51.034;3.742;2023-02-12T16:48:26;18.77;;;11.80;;
34019;SDS011;20895;51.034;3.742;2023-02-12T16:50:56;29.08;;;13.23;;
34019;SDS011;20895;51.034;3.742;2023-02-12T16:53:26;20.13;;;12.07;;
34019;SDS011;20895;51.034;3.742;2023-02-12T16:55:55;31.52;;;15.27;;
34019;SDS011;20895;51.034;3.742;2023-02-12T16:58:20;20.05;;;12.27;;
34019;SDS011;20895;51.034;3.742;2023-02-12T17:00:46;18.23;;;13.10;;
34019;SDS011;20895;51.034;3.742;2023-02-12T17:03:12;17.27;;;12.80;;
34019;SDS011;20895;51.034;3.742;2023-02-12T17:05:37;35.08;;;23.98;;
34019;SDS011;20895;51.034;3.742;2023-02-12T17:08:05;32.42;;;22.13;;
34019;SDS011;20895;51.034;3.742;2023-02-12T17:10:30;18.25;;;13.40;;
34019;SDS011;20895;51.034;3.742;2023-02-12T17:12:55;25.52;;;17.60;;
34019;SDS011;20895;51.034;3.742;2023-02-12T17:15:22;20.85;;;12.75;;
34019;SDS011;20895;51.034;3.742;2023-02-12T17:17:48;24.77;;;12.98;;
34019;SDS011;20895;51.034;3.742;2023-02-12T17:20:14;26.67;;;14.10;;